New Preston Marble Dale, Connecticut
Current Conditions -  °F | °C
As of 11:35 PM on Friday 24 Oct 2014 (Local Time) from KOXC Reporting Station
Clear Clear  
Wind Chill: 50°   Ceiling: Unl
Heat Index: 50°   Visibility: 10mi
Dew Point: 39°   Wind: 9mph
Humidity: 66%   Direction: 320°NW
Pressure: 29.82"   Gusts: 16mph
Location:  41.69°N, 73.35°W
Report Text: KOXC 250335Z 32008G14KT 10SM CLR 10/04 A2982 RMK AO1
Loading
Personal Weather Stations






























Interactive Weather Map New forecast layout! Learn more

10-Day Weather Forecast

Advertisements
Track Severe Weather on mobile